createdAt,value
2022-09-10T00:01:53.617Z,1.60
2022-09-10T00:04:20.318Z,1.55
2022-09-10T00:06:47.070Z,1.77
2022-09-10T00:09:14.118Z,1.70
2022-09-10T00:11:41.833Z,1.50
2022-09-10T00:14:13.773Z,1.92
2022-09-10T00:16:41.041Z,1.50
2022-09-10T00:19:07.926Z,1.73
2022-09-10T00:21:35.796Z,1.45
2022-09-10T00:24:05.243Z,1.48
2022-09-10T00:26:35.485Z,1.45
2022-09-10T00:29:02.497Z,1.50
2022-09-10T00:31:30.565Z,1.35
2022-09-10T00:33:58.175Z,1.42
2022-09-10T00:36:27.390Z,1.30
2022-09-10T00:38:55.585Z,1.60
2022-09-10T00:41:24.271Z,1.35
2022-09-10T00:43:52.398Z,1.40
2022-09-10T00:46:43.569Z,1.30
2022-09-10T00:49:13.566Z,1.20
2022-09-10T00:51:40.561Z,1.40
2022-09-10T00:54:07.917Z,1.27
2022-09-10T00:56:35.129Z,1.27
2022-09-10T00:59:03.200Z,1.85
2022-09-10T01:01:31.078Z,1.65
2022-09-10T01:03:57.808Z,1.45
2022-09-10T01:06:24.822Z,1.58
2022-09-10T01:08:51.530Z,1.20
2022-09-10T01:11:42.736Z,1.33
2022-09-10T01:14:28.500Z,1.52
2022-09-10T01:17:22.997Z,1.33
2022-09-10T01:20:17.887Z,1.30
2022-09-10T01:22:57.720Z,1.40
2022-09-10T01:25:46.261Z,1.63
2022-09-10T01:28:23.233Z,1.60
2022-09-10T01:30:55.751Z,1.48
2022-09-10T01:33:26.961Z,1.65
2022-09-10T01:36:07.005Z,1.30
2022-09-10T01:38:35.920Z,1.40
2022-09-10T01:41:04.736Z,1.42
2022-09-10T01:43:36.653Z,1.70
2022-09-10T01:46:16.851Z,1.15
2022-09-10T01:49:02.770Z,1.30
2022-09-10T01:52:00.564Z,1.52
2022-09-10T01:55:00.245Z,1.27
2022-09-10T01:57:37.103Z,1.60
2022-09-10T02:00:11.636Z,1.33
2022-09-10T02:03:18.393Z,1.73
2022-09-10T02:05:49.659Z,1.30
2022-09-10T02:08:21.303Z,1.33
2022-09-10T02:10:55.434Z,1.30
2022-09-10T02:13:25.508Z,1.40
2022-09-10T02:16:32.136Z,1.42
2022-09-10T02:19:00.876Z,1.55
2022-09-10T02:21:27.970Z,1.20
2022-09-10T02:23:58.834Z,1.55
2022-09-10T02:26:26.078Z,1.30
2022-09-10T02:28:53.788Z,1.38
2022-09-10T02:31:22.622Z,1.50
2022-09-10T02:33:49.882Z,1.48
2022-09-10T02:36:16.826Z,1.50
2022-09-10T02:38:44.426Z,1.58
2022-09-10T02:41:11.260Z,1.50
2022-09-10T02:43:38.350Z,1.75
2022-09-10T02:46:08.638Z,1.60
2022-09-10T02:48:36.907Z,2.05
2022-09-10T02:51:03.893Z,1.40
2022-09-10T02:53:31.854Z,1.85
2022-09-10T02:56:03.320Z,1.60
2022-09-10T02:58:34.272Z,1.90
2022-09-10T03:01:18.375Z,2.90
2022-09-10T03:03:54.059Z,2.17
2022-09-10T03:06:21.991Z,1.52
2022-09-10T03:08:49.352Z,1.60
2022-09-10T03:11:16.780Z,1.50
2022-09-10T03:13:46.176Z,1.88
2022-09-10T03:16:13.960Z,1.55
2022-09-10T03:18:43.775Z,1.30
2022-09-10T03:21:16.219Z,1.60
2022-09-10T03:23:44.986Z,1.90
2022-09-10T03:26:14.398Z,1.40
2022-09-10T03:28:43.798Z,1.40
2022-09-10T03:31:13.851Z,1.52
2022-09-10T03:33:44.560Z,1.70
2022-09-10T03:36:13.524Z,1.60
2022-09-10T03:38:41.991Z,1.73
2022-09-10T03:41:09.195Z,1.60
2022-09-10T03:43:36.042Z,1.88
2022-09-10T03:46:06.782Z,1.73
2022-09-10T03:48:39.705Z,1.40
2022-09-10T03:51:08.372Z,1.70
2022-09-10T03:53:35.100Z,1.67
2022-09-10T03:56:03.555Z,1.70
2022-09-10T03:58:31.139Z,1.70
2022-09-10T04:00:58.555Z,1.60
2022-09-10T04:03:26.067Z,1.80
2022-09-10T04:05:52.850Z,1.80
2022-09-10T04:08:20.740Z,1.70
2022-09-10T04:10:48.396Z,1.73
2022-09-10T04:13:15.994Z,1.50
2022-09-10T04:15:45.574Z,2.35
2022-09-10T04:18:12.518Z,1.90
2022-09-10T04:20:39.591Z,1.80
2022-09-10T04:23:09.565Z,1.77
2022-09-10T04:25:38.310Z,1.60
2022-09-10T04:28:05.017Z,1.60
2022-09-10T04:30:32.706Z,1.40
2022-09-10T04:33:00.939Z,2.03
2022-09-10T04:35:30.759Z,1.98
2022-09-10T04:37:58.766Z,1.92
2022-09-10T04:40:27.361Z,1.55
2022-09-10T04:42:54.405Z,1.63
2022-09-10T04:45:21.690Z,1.80
2022-09-10T04:47:49.626Z,1.60
2022-09-10T04:50:20.462Z,1.67
2022-09-10T04:53:08.063Z,1.80
2022-09-10T04:55:36.882Z,1.80
2022-09-10T04:58:03.638Z,2.08
2022-09-10T05:00:30.379Z,2.13
2022-09-10T05:02:58.042Z,1.90
2022-09-10T05:05:25.221Z,2.42
2022-09-10T05:07:53.582Z,1.77
2022-09-10T05:10:21.580Z,2.00
2022-09-10T05:12:48.459Z,2.05
2022-09-10T05:15:15.328Z,2.10
2022-09-10T05:17:42.120Z,2.25
2022-09-10T05:20:09.164Z,2.10
2022-09-10T05:22:42.447Z,1.95
2022-09-10T05:25:09.681Z,1.88
2022-09-10T05:27:37.607Z,2.10
2022-09-10T05:30:05.909Z,2.05
2022-09-10T05:32:32.861Z,1.85
2022-09-10T05:34:59.817Z,2.70
2022-09-10T05:37:27.051Z,2.50
2022-09-10T05:39:53.950Z,2.17
2022-09-10T05:42:22.356Z,2.15
2022-09-10T05:44:49.354Z,2.33
2022-09-10T05:47:16.113Z,1.80
2022-09-10T05:49:43.325Z,1.70
2022-09-10T05:52:10.060Z,1.92
2022-09-10T05:54:36.841Z,1.90
2022-09-10T05:57:04.145Z,2.20
2022-09-10T05:59:30.865Z,1.77
2022-09-10T06:01:58.334Z,2.00
2022-09-10T06:04:25.724Z,1.95
2022-09-10T06:06:52.518Z,2.05
2022-09-10T06:09:20.688Z,2.35
2022-09-10T06:11:54.604Z,1.77
2022-09-10T06:14:22.368Z,1.60
2022-09-10T06:16:50.123Z,1.70
2022-09-10T06:19:17.128Z,1.90
2022-09-10T06:21:43.917Z,2.15
2022-09-10T06:24:10.781Z,1.83
2022-09-10T06:26:41.698Z,1.85
2022-09-10T06:29:12.601Z,1.63
2022-09-10T06:31:40.922Z,1.70
2022-09-10T06:34:07.989Z,1.42
2022-09-10T06:36:35.010Z,1.80
2022-09-10T06:39:03.659Z,1.55
2022-09-10T06:41:38.791Z,1.50
2022-09-10T06:44:10.839Z,1.58
2022-09-10T06:49:31.530Z,1.70
2022-09-10T06:51:58.545Z,1.73
2022-09-10T06:54:26.585Z,1.38
2022-09-10T06:56:58.237Z,1.60
2022-09-10T06:59:25.416Z,1.35
2022-09-10T07:01:52.272Z,1.48
2022-09-10T07:04:20.725Z,1.40
2022-09-10T07:06:49.319Z,1.08
2022-09-10T07:09:16.935Z,1.55
2022-09-10T07:11:57.529Z,1.30
2022-09-10T07:14:24.579Z,1.55
2022-09-10T07:16:53.525Z,1.10
2022-09-10T07:19:23.423Z,1.52
2022-09-10T07:21:50.810Z,1.13
2022-09-10T07:24:17.609Z,1.27
2022-09-10T07:27:16.600Z,1.42
2022-09-10T07:29:43.763Z,1.02
2022-09-10T07:32:15.097Z,1.30
2022-09-10T07:34:41.860Z,1.08
2022-09-10T07:37:09.132Z,1.20
2022-09-10T07:39:36.384Z,1.08
2022-09-10T07:42:03.131Z,1.25
2022-09-10T07:44:34.755Z,1.10
2022-09-10T07:47:03.508Z,1.00
2022-09-10T07:49:32.824Z,0.90
2022-09-10T07:52:00.197Z,0.90
2022-09-10T07:54:32.622Z,1.13
2022-09-10T07:57:00.497Z,1.00
2022-09-10T07:59:27.984Z,0.88
2022-09-10T08:02:00.564Z,0.77
2022-09-10T08:04:36.767Z,0.60
2022-09-10T08:07:07.270Z,0.98
2022-09-10T08:12:26.892Z,0.60
2022-09-10T08:14:59.937Z,0.80
2022-09-10T08:17:30.384Z,0.57
2022-09-10T08:19:57.761Z,0.60
2022-09-10T08:22:26.086Z,0.73
2022-09-10T08:24:57.127Z,0.60
2022-09-10T08:27:29.408Z,0.50
2022-09-10T08:29:57.745Z,0.77
2022-09-10T08:32:24.574Z,0.50
2022-09-10T08:34:52.667Z,0.50
2022-09-10T08:37:19.744Z,0.40
2022-09-10T08:39:47.823Z,0.60
2022-09-10T08:42:23.834Z,0.65
2022-09-10T08:44:54.659Z,0.50
2022-09-10T08:47:56.025Z,0.40
2022-09-10T08:50:28.147Z,0.55
2022-09-10T08:53:01.144Z,0.95
2022-09-10T08:55:32.024Z,0.60
2022-09-10T08:58:19.127Z,0.45
2022-09-10T09:00:54.787Z,0.50
2022-09-10T09:03:32.228Z,0.50
2022-09-10T09:06:05.758Z,0.77
2022-09-10T09:08:48.824Z,0.60
2022-09-10T09:11:44.892Z,0.50
2022-09-10T09:14:39.689Z,0.90
2022-09-10T09:17:43.937Z,0.60
2022-09-10T09:20:18.382Z,0.40
2022-09-10T09:23:03.629Z,0.40
2022-09-10T09:25:41.589Z,0.70
2022-09-10T09:28:15.453Z,1.35
2022-09-10T09:30:49.466Z,0.50
2022-09-10T09:33:21.233Z,0.47
2022-09-10T09:35:54.159Z,0.68
2022-09-10T09:38:25.179Z,0.40
2022-09-10T09:40:58.904Z,0.60
2022-09-10T09:43:36.597Z,0.50
2022-09-10T09:46:06.826Z,0.60
2022-09-10T09:48:40.984Z,0.55
2022-09-10T09:51:13.155Z,0.50
2022-09-10T09:53:42.351Z,0.80
2022-09-10T09:56:24.782Z,0.60
2022-09-10T09:58:52.346Z,0.45
2022-09-10T10:01:24.099Z,0.57
2022-09-10T10:04:03.132Z,0.77
2022-09-10T10:06:32.695Z,0.40
2022-09-10T10:09:02.201Z,0.50
2022-09-10T10:11:49.249Z,0.55
2022-09-10T10:14:32.571Z,0.82
2022-09-10T10:17:01.064Z,0.80
2022-09-10T10:19:34.471Z,0.63
2022-09-10T10:22:19.774Z,0.65
2022-09-10T10:24:49.538Z,0.70
2022-09-10T10:27:25.622Z,1.00
2022-09-10T10:30:07.723Z,0.60
2022-09-10T10:32:44.770Z,0.50
2022-09-10T10:35:29.762Z,0.52
2022-09-10T10:38:13.930Z,0.40
2022-09-10T10:40:50.923Z,0.60
2022-09-10T10:43:32.789Z,0.50
2022-09-10T10:46:12.030Z,0.40
2022-09-10T10:49:03.564Z,0.70
2022-09-10T10:52:00.483Z,0.50
2022-09-10T10:54:42.620Z,0.50
2022-09-10T10:57:12.185Z,0.60
2022-09-10T10:59:47.976Z,0.40
2022-09-10T11:02:53.266Z,0.60
2022-09-10T11:05:45.111Z,0.47
2022-09-10T11:08:19.555Z,0.63
2022-09-10T11:10:54.768Z,0.70
2022-09-10T11:13:24.628Z,0.40
2022-09-10T11:15:56.164Z,0.43
2022-09-10T11:18:25.230Z,0.40
2022-09-10T11:20:54.770Z,0.63
2022-09-10T11:23:29.055Z,0.40
2022-09-10T11:26:13.611Z,0.40
2022-09-10T11:29:08.082Z,0.30
2022-09-10T11:31:42.876Z,0.60
2022-09-10T11:34:33.091Z,0.30
2022-09-10T11:37:07.135Z,0.30
2022-09-10T11:39:35.731Z,0.60
2022-09-10T11:42:22.529Z,0.60
2022-09-10T11:45:19.781Z,0.40
2022-09-10T11:48:00.391Z,0.30
2022-09-10T11:50:38.135Z,0.40
2022-09-10T11:53:07.697Z,0.55
2022-09-10T11:55:58.165Z,0.50
2022-09-10T11:58:43.455Z,0.30
2022-09-10T12:01:19.396Z,0.40
2022-09-10T12:04:05.781Z,0.50
2022-09-10T12:07:10.795Z,0.70
2022-09-10T12:10:13.619Z,0.40
2022-09-10T12:12:53.419Z,0.40
2022-09-10T12:15:26.020Z,0.30
2022-09-10T12:18:00.055Z,0.40
2022-09-10T12:20:42.454Z,0.40
2022-09-10T12:23:18.138Z,0.52
2022-09-10T12:25:45.585Z,0.40
2022-09-10T12:28:45.852Z,0.40
2022-09-10T12:31:15.537Z,0.57
2022-09-10T12:33:42.609Z,0.40
2022-09-10T12:36:14.378Z,0.32
2022-09-10T12:39:18.844Z,0.40
2022-09-10T12:41:45.576Z,0.30
2022-09-10T12:44:27.619Z,0.50
2022-09-10T12:47:16.696Z,0.52
2022-09-10T12:49:48.315Z,0.30
2022-09-10T12:52:23.218Z,0.30
2022-09-10T12:55:18.761Z,0.20
2022-09-10T12:58:24.232Z,0.30
2022-09-10T13:00:54.066Z,0.35
2022-09-10T13:03:22.371Z,0.32
2022-09-10T13:05:53.384Z,0.40
2022-09-10T13:08:28.250Z,0.30
2022-09-10T13:11:02.543Z,0.43
2022-09-10T13:13:43.953Z,0.38
2022-09-10T13:16:38.388Z,0.60
2022-09-10T13:19:14.239Z,0.50
2022-09-10T13:21:41.361Z,0.38
2022-09-10T13:24:36.416Z,0.50
2022-09-10T13:27:03.396Z,0.52
2022-09-10T13:29:52.764Z,0.52
2022-09-10T13:32:34.754Z,0.50
2022-09-10T13:35:29.766Z,0.60
2022-09-10T13:38:08.909Z,0.60
2022-09-10T13:41:13.532Z,0.57
2022-09-10T13:44:01.353Z,0.70
2022-09-10T13:46:41.904Z,0.60
2022-09-10T13:49:19.896Z,0.70
2022-09-10T13:51:52.153Z,0.70
2022-09-10T13:54:40.008Z,0.50
2022-09-10T13:57:26.539Z,0.60
2022-09-10T14:00:11.493Z,0.55
2022-09-10T14:02:58.939Z,0.50
2022-09-10T14:05:26.739Z,0.40
2022-09-10T14:07:55.711Z,0.50
2022-09-10T14:10:22.669Z,0.55
2022-09-10T14:12:50.298Z,0.50
2022-09-10T14:15:20.666Z,0.50
2022-09-10T14:17:51.143Z,0.57
2022-09-10T14:20:18.667Z,0.50
2022-09-10T14:22:45.517Z,0.32
2022-09-10T14:25:37.401Z,0.30
2022-09-10T14:28:16.327Z,0.60
2022-09-10T14:30:44.488Z,0.40
2022-09-10T14:33:33.320Z,0.40
2022-09-10T14:36:33.867Z,0.57
2022-09-10T14:39:18.239Z,0.55
2022-09-10T14:41:45.613Z,0.65
2022-09-10T14:44:22.523Z,0.52
2022-09-10T14:46:57.489Z,0.90
2022-09-10T14:49:32.234Z,0.93
2022-09-10T14:51:59.981Z,0.55
2022-09-10T14:54:28.707Z,0.70
2022-09-10T14:57:02.556Z,1.00
2022-09-10T14:59:33.212Z,0.60
2022-09-10T15:02:01.462Z,0.60
2022-09-10T15:04:30.269Z,0.60
2022-09-10T15:06:58.472Z,0.60
2022-09-10T15:09:27.396Z,0.77
2022-09-10T15:12:06.469Z,0.80
2022-09-10T15:14:33.789Z,1.50
2022-09-10T15:17:01.031Z,0.90
2022-09-10T15:19:28.132Z,2.17
2022-09-10T15:21:57.731Z,1.13
2022-09-10T15:24:25.483Z,0.90
2022-09-10T15:26:52.724Z,1.00
2022-09-10T15:29:19.842Z,0.75
2022-09-10T15:31:47.199Z,1.08
2022-09-10T15:34:14.465Z,0.90
2022-09-10T15:36:42.068Z,0.95
2022-09-10T15:39:11.786Z,0.80
2022-09-10T15:41:43.161Z,0.70
2022-09-10T15:44:10.353Z,1.10
2022-09-10T15:46:40.833Z,1.27
2022-09-10T15:49:08.170Z,1.00
2022-09-10T15:51:34.931Z,0.85
2022-09-10T15:54:04.904Z,1.00
2022-09-10T15:56:32.727Z,1.13
2022-09-10T15:58:59.876Z,1.55
2022-09-10T16:01:29.004Z,1.48
2022-09-10T16:03:57.692Z,1.30
2022-09-10T16:06:27.517Z,1.67
2022-09-10T16:08:57.580Z,1.40
2022-09-10T16:11:25.356Z,1.40
2022-09-10T16:13:52.580Z,1.42
2022-09-10T16:16:23.930Z,1.42
2022-09-10T16:18:56.270Z,1.50
2022-09-10T16:21:26.276Z,1.70
2022-09-10T16:23:55.542Z,1.52
2022-09-10T16:26:24.573Z,1.25
2022-09-10T16:28:59.150Z,1.73
2022-09-10T16:31:28.465Z,1.60
2022-09-10T16:33:57.627Z,1.55
2022-09-10T16:36:25.128Z,1.60
2022-09-10T16:38:56.063Z,1.48
2022-09-10T16:41:23.813Z,1.70
2022-09-10T16:43:50.793Z,1.85
2022-09-10T16:46:18.301Z,3.28
2022-09-10T16:48:45.575Z,2.80
2022-09-10T16:51:14.408Z,3.03
2022-09-10T16:53:42.774Z,3.08
2022-09-10T16:56:12.859Z,3.28
2022-09-10T16:58:41.423Z,2.40
2022-09-10T17:01:09.556Z,2.33
2022-09-10T17:03:41.048Z,2.10
2022-09-10T17:06:15.035Z,2.00
2022-09-10T17:08:42.259Z,2.20
2022-09-10T17:11:10.011Z,2.33
2022-09-10T17:13:37.840Z,2.65
2022-09-10T17:16:16.837Z,2.63
2022-09-10T17:18:44.653Z,3.35
2022-09-10T17:21:11.731Z,3.70
2022-09-10T17:23:38.635Z,3.42
2022-09-10T17:26:06.808Z,3.17
2022-09-10T17:28:33.704Z,4.13
2022-09-10T17:31:00.769Z,4.13
2022-09-10T17:33:28.276Z,4.10
2022-09-10T17:35:56.848Z,3.08
2022-09-10T17:38:25.078Z,2.92
2022-09-10T17:41:01.513Z,2.30
2022-09-10T17:43:29.687Z,2.65
2022-09-10T17:45:56.492Z,2.60
2022-09-10T17:48:27.582Z,2.47
2022-09-10T17:50:55.068Z,2.70
2022-09-10T17:53:21.875Z,3.13
2022-09-10T17:55:48.711Z,3.92
2022-09-10T17:58:16.720Z,4.43
2022-09-10T18:00:48.875Z,5.28
2022-09-10T18:03:17.754Z,7.07
2022-09-10T18:05:46.245Z,7.97
2022-09-10T18:08:13.431Z,7.30
2022-09-10T18:10:40.439Z,5.72
2022-09-10T18:13:08.325Z,4.90
2022-09-10T18:15:40.417Z,4.03
2022-09-10T18:18:07.199Z,4.30
2022-09-10T18:20:33.966Z,4.32
2022-09-10T18:23:01.259Z,4.40
2022-09-10T18:25:32.145Z,4.28
2022-09-10T18:28:01.571Z,4.07
2022-09-10T18:30:29.438Z,5.00
2022-09-10T18:32:56.433Z,6.68
2022-09-10T18:35:23.792Z,10.05
2022-09-10T18:37:51.882Z,9.82
2022-09-10T18:40:19.785Z,11.65
2022-09-10T18:42:47.951Z,11.20
2022-09-10T18:45:14.823Z,13.98
2022-09-10T18:47:44.845Z,19.48
2022-09-10T18:50:13.346Z,18.52
2022-09-10T18:52:40.175Z,17.80
2022-09-10T18:55:07.320Z,15.20
2022-09-10T18:57:34.235Z,13.48
2022-09-10T19:00:01.286Z,11.25
2022-09-10T19:02:28.102Z,12.07
2022-09-10T19:05:10.760Z,11.95
2022-09-10T19:07:38.754Z,13.02
2022-09-10T19:10:07.257Z,12.10
2022-09-10T19:12:34.093Z,13.45
2022-09-10T19:15:01.023Z,12.93
2022-09-10T19:17:27.822Z,14.85
2022-09-10T19:19:54.663Z,16.77
2022-09-10T19:22:22.340Z,15.63
2022-09-10T19:24:56.534Z,15.98
2022-09-10T19:27:24.415Z,15.57
2022-09-10T19:29:52.046Z,16.00
2022-09-10T19:32:20.403Z,15.60
2022-09-10T19:34:52.082Z,14.30
2022-09-10T19:37:19.899Z,14.43
2022-09-10T19:39:47.704Z,14.38
2022-09-10T19:42:14.502Z,14.35
2022-09-10T19:44:41.183Z,14.93
2022-09-10T19:47:07.952Z,14.77
2022-09-10T19:49:34.628Z,10.88
2022-09-10T19:52:01.770Z,11.23
2022-09-10T19:54:30.488Z,11.25
2022-09-10T19:57:00.158Z,13.30
2022-09-10T19:59:27.039Z,15.15
2022-09-10T20:01:53.874Z,16.08
2022-09-10T20:04:21.349Z,18.42
2022-09-10T20:06:50.442Z,18.60
2022-09-10T20:09:17.350Z,16.77
2022-09-10T20:11:44.215Z,14.40
2022-09-10T20:14:13.622Z,12.90
2022-09-10T20:16:42.998Z,11.43
2022-09-10T20:19:11.365Z,11.25
2022-09-10T20:21:38.170Z,9.95
2022-09-10T20:24:07.279Z,9.73
2022-09-10T20:26:38.059Z,8.98
2022-09-10T20:29:12.276Z,8.80
2022-09-10T20:31:41.310Z,9.48
2022-09-10T20:34:14.246Z,7.88
2022-09-10T20:36:44.423Z,7.55
2022-09-10T20:39:16.368Z,7.97
2022-09-10T20:41:43.981Z,8.25
2022-09-10T20:44:13.167Z,8.73
2022-09-10T20:46:41.558Z,8.35
2022-09-10T20:49:10.511Z,8.90
2022-09-10T20:51:38.951Z,8.88
2022-09-10T20:54:08.309Z,8.43
2022-09-10T20:56:35.073Z,9.70
2022-09-10T20:59:02.122Z,9.73
2022-09-10T21:01:31.299Z,10.50
2022-09-10T21:03:59.575Z,10.30
2022-09-10T21:06:28.423Z,10.73
2022-09-10T21:08:57.980Z,12.20
2022-09-10T21:11:26.934Z,13.77
2022-09-10T21:13:56.124Z,13.02
2022-09-10T21:16:25.275Z,14.20
2022-09-10T21:18:54.886Z,15.70
2022-09-10T21:21:25.556Z,16.45
2022-09-10T21:24:19.697Z,16.27
2022-09-10T21:26:46.391Z,15.45
2022-09-10T21:29:18.527Z,15.18
2022-09-10T21:31:46.032Z,14.98
2022-09-10T21:34:13.845Z,12.25
2022-09-10T21:36:41.401Z,12.02
2022-09-10T21:39:12.787Z,11.10
2022-09-10T21:41:42.647Z,8.60
2022-09-10T21:44:14.567Z,9.90
2022-09-10T21:46:45.450Z,10.02
2022-09-10T21:49:13.057Z,9.23
2022-09-10T21:51:40.558Z,8.05
2022-09-10T21:54:07.786Z,8.00
2022-09-10T21:56:34.605Z,9.07
2022-09-10T21:59:01.463Z,8.73
2022-09-10T22:01:30.789Z,8.85
2022-09-10T22:04:00.602Z,7.90
2022-09-10T22:06:29.732Z,8.02
2022-09-10T22:08:58.563Z,9.13
2022-09-10T22:11:30.348Z,8.40
2022-09-10T22:14:02.398Z,9.18
2022-09-10T22:16:31.318Z,8.73
2022-09-10T22:19:00.488Z,9.23
2022-09-10T22:21:27.643Z,8.80
2022-09-10T22:23:54.457Z,9.15
2022-09-10T22:26:24.223Z,9.45
2022-09-10T22:28:54.782Z,8.70
2022-09-10T22:31:23.718Z,8.30
2022-09-10T22:33:59.072Z,7.90
2022-09-10T22:36:29.025Z,6.50
2022-09-10T22:39:06.665Z,6.70
2022-09-10T22:41:34.962Z,5.47
2022-09-10T22:44:02.623Z,6.30
2022-09-10T22:46:29.825Z,6.07
2022-09-10T22:48:56.795Z,6.63
2022-09-10T22:51:26.013Z,6.93
2022-09-10T22:53:53.635Z,6.60
2022-09-10T22:56:22.289Z,6.32
2022-09-10T22:58:52.323Z,6.43
2022-09-10T23:01:21.584Z,6.88
2022-09-10T23:03:48.652Z,5.90
2022-09-10T23:06:20.516Z,6.38
2022-09-10T23:08:50.489Z,6.38
2022-09-10T23:11:21.212Z,5.15
2022-09-10T23:13:54.025Z,6.63
2022-09-10T23:16:26.324Z,6.78
2022-09-10T23:18:55.228Z,7.00
2022-09-10T23:21:24.067Z,5.97
2022-09-10T23:23:53.705Z,5.85
2022-09-10T23:26:21.818Z,5.78
2022-09-10T23:28:48.939Z,5.25
2022-09-10T23:31:20.895Z,5.13
2022-09-10T23:33:59.246Z,5.22
2022-09-10T23:36:33.090Z,5.38
2022-09-10T23:39:00.636Z,5.88
2022-09-10T23:41:27.682Z,5.55
2022-09-10T23:43:54.730Z,5.05
2022-09-10T23:46:21.716Z,5.68
2022-09-10T23:48:49.501Z,5.45
2022-09-10T23:51:20.479Z,5.40
2022-09-10T23:53:48.357Z,5.28
2022-09-10T23:56:19.741Z,5.10
2022-09-10T23:58:47.804Z,5.50
